sensor_id;sensor_type;location;lat;lon;timestamp;temperature;humidity
4755;DHT22;2391;47.212;7.542;2023-07-13T00:01:29;25.20;85.50
4755;DHT22;2391;47.212;7.542;2023-07-13T00:03:56;25.20;85.50
4755;DHT22;2391;47.212;7.542;2023-07-13T00:06:23;25.20;85.70
4755;DHT22;2391;47.212;7.542;2023-07-13T00:08:49;25.20;85.90
4755;DHT22;2391;47.212;7.542;2023-07-13T00:11:16;25.20;86.10
4755;DHT22;2391;47.212;7.542;2023-07-13T00:13:43;25.20;86.30
4755;DHT22;2391;47.212;7.542;2023-07-13T00:16:10;25.20;86.30
4755;DHT22;2391;47.212;7.542;2023-07-13T00:18:37;25.10;86.40
4755;DHT22;2391;47.212;7.542;2023-07-13T00:21:03;25.10;86.30
4755;DHT22;2391;47.212;7.542;2023-07-13T00:23:38;25.10;86.50
4755;DHT22;2391;47.212;7.542;2023-07-13T00:26:03;25.00;87.00
4755;DHT22;2391;47.212;7.542;2023-07-13T00:28:29;24.90;86.00
4755;DHT22;2391;47.212;7.542;2023-07-13T00:30:54;24.80;86.60
4755;DHT22;2391;47.212;7.542;2023-07-13T00:33:21;24.60;86.30
4755;DHT22;2391;47.212;7.542;2023-07-13T00:35:48;24.20;87.00
4755;DHT22;2391;47.212;7.542;2023-07-13T00:38:14;23.90;87.50
4755;DHT22;2391;47.212;7.542;2023-07-13T00:40:40;23.60;87.90
4755;DHT22;2391;47.212;7.542;2023-07-13T00:43:18;23.50;87.20
4755;DHT22;2391;47.212;7.542;2023-07-13T00:48:17;23.50;86.70
4755;DHT22;2391;47.212;7.542;2023-07-13T00:50:44;23.40;86.30
4755;DHT22;2391;47.212;7.542;2023-07-13T00:53:12;23.40;86.50
4755;DHT22;2391;47.212;7.542;2023-07-13T00:55:39;23.50;87.40
4755;DHT22;2391;47.212;7.542;2023-07-13T00:58:06;23.50;87.20
4755;DHT22;2391;47.212;7.542;2023-07-13T01:00:35;23.50;87.00
4755;DHT22;2391;47.212;7.542;2023-07-13T01:03:01;23.60;87.10
4755;DHT22;2391;47.212;7.542;2023-07-13T01:05:32;23.70;87.40
4755;DHT22;2391;47.212;7.542;2023-07-13T01:07:59;23.80;87.30
4755;DHT22;2391;47.212;7.542;2023-07-13T01:10:26;23.80;87.60
4755;DHT22;2391;47.212;7.542;2023-07-13T01:12:52;23.80;87.90
4755;DHT22;2391;47.212;7.542;2023-07-13T01:15:44;23.80;88.20
4755;DHT22;2391;47.212;7.542;2023-07-13T01:18:11;23.90;88.20
4755;DHT22;2391;47.212;7.542;2023-07-13T01:20:38;23.90;88.00
4755;DHT22;2391;47.212;7.542;2023-07-13T01:23:06;23.90;87.90
4755;DHT22;2391;47.212;7.542;2023-07-13T01:25:32;23.80;88.10
4755;DHT22;2391;47.212;7.542;2023-07-13T01:27:59;23.80;87.70
4755;DHT22;2391;47.212;7.542;2023-07-13T01:30:25;23.70;88.10
4755;DHT22;2391;47.212;7.542;2023-07-13T01:32:51;23.70;88.10
4755;DHT22;2391;47.212;7.542;2023-07-13T01:35:16;23.70;88.00
4755;DHT22;2391;47.212;7.542;2023-07-13T01:37:42;23.60;87.70
4755;DHT22;2391;47.212;7.542;2023-07-13T01:40:10;23.60;87.80
4755;DHT22;2391;47.212;7.542;2023-07-13T01:42:37;23.50;87.60
4755;DHT22;2391;47.212;7.542;2023-07-13T01:45:03;23.50;87.80
4755;DHT22;2391;47.212;7.542;2023-07-13T01:47:29;23.40;87.10
4755;DHT22;2391;47.212;7.542;2023-07-13T01:49:57;23.30;87.30
4755;DHT22;2391;47.212;7.542;2023-07-13T01:52:23;23.30;87.60
4755;DHT22;2391;47.212;7.542;2023-07-13T01:54:49;23.30;87.70
4755;DHT22;2391;47.212;7.542;2023-07-13T01:57:15;23.20;87.90
4755;DHT22;2391;47.212;7.542;2023-07-13T01:59:40;23.20;87.10
4755;DHT22;2391;47.212;7.542;2023-07-13T02:02:06;23.20;87.50
4755;DHT22;2391;47.212;7.542;2023-07-13T02:04:32;23.20;88.10
4755;DHT22;2391;47.212;7.542;2023-07-13T02:06:58;23.20;88.40
4755;DHT22;2391;47.212;7.542;2023-07-13T02:09:24;23.20;88.30
4755;DHT22;2391;47.212;7.542;2023-07-13T02:11:50;23.20;88.40
4755;DHT22;2391;47.212;7.542;2023-07-13T02:14:15;23.20;88.30
4755;DHT22;2391;47.212;7.542;2023-07-13T02:16:41;23.20;88.40
4755;DHT22;2391;47.212;7.542;2023-07-13T02:19:07;23.20;88.40
4755;DHT22;2391;47.212;7.542;2023-07-13T02:21:34;23.20;88.30
4755;DHT22;2391;47.212;7.542;2023-07-13T02:24:00;23.20;88.30
4755;DHT22;2391;47.212;7.542;2023-07-13T02:26:26;23.20;87.90
4755;DHT22;2391;47.212;7.542;2023-07-13T02:28:52;23.20;87.70
4755;DHT22;2391;47.212;7.542;2023-07-13T02:31:18;23.20;88.20
4755;DHT22;2391;47.212;7.542;2023-07-13T02:33:44;23.10;88.30
4755;DHT22;2391;47.212;7.542;2023-07-13T02:36:12;23.10;88.40
4755;DHT22;2391;47.212;7.542;2023-07-13T02:38:38;23.10;88.40
4755;DHT22;2391;47.212;7.542;2023-07-13T02:41:06;23.10;88.20
4755;DHT22;2391;47.212;7.542;2023-07-13T02:43:32;23.10;88.30
4755;DHT22;2391;47.212;7.542;2023-07-13T02:45:59;23.10;88.00
4755;DHT22;2391;47.212;7.542;2023-07-13T02:48:27;23.10;87.80
4755;DHT22;2391;47.212;7.542;2023-07-13T02:50:52;23.10;88.00
4755;DHT22;2391;47.212;7.542;2023-07-13T02:53:18;23.10;88.10
4755;DHT22;2391;47.212;7.542;2023-07-13T02:55:44;23.10;88.60
4755;DHT22;2391;47.212;7.542;2023-07-13T02:58:11;23.10;89.00
4755;DHT22;2391;47.212;7.542;2023-07-13T03:00:38;23.10;88.60
4755;DHT22;2391;47.212;7.542;2023-07-13T03:03:06;23.10;88.20
4755;DHT22;2391;47.212;7.542;2023-07-13T03:05:32;23.10;88.10
4755;DHT22;2391;47.212;7.542;2023-07-13T03:07:58;23.10;88.60
4755;DHT22;2391;47.212;7.542;2023-07-13T03:10:24;23.10;88.60
4755;DHT22;2391;47.212;7.542;2023-07-13T03:12:51;23.00;88.40
4755;DHT22;2391;47.212;7.542;2023-07-13T03:15:16;23.00;88.90
4755;DHT22;2391;47.212;7.542;2023-07-13T03:17:42;23.00;89.20
4755;DHT22;2391;47.212;7.542;2023-07-13T03:20:08;23.00;88.80
4755;DHT22;2391;47.212;7.542;2023-07-13T03:22:34;23.00;88.70
4755;DHT22;2391;47.212;7.542;2023-07-13T03:25:00;23.00;88.90
4755;DHT22;2391;47.212;7.542;2023-07-13T03:27:26;23.00;89.20
4755;DHT22;2391;47.212;7.542;2023-07-13T03:29:51;22.90;89.00
4755;DHT22;2391;47.212;7.542;2023-07-13T03:32:17;22.90;89.10
4755;DHT22;2391;47.212;7.542;2023-07-13T03:34:43;22.90;89.30
4755;DHT22;2391;47.212;7.542;2023-07-13T03:37:08;22.90;89.60
4755;DHT22;2391;47.212;7.542;2023-07-13T03:39:34;22.90;89.70
4755;DHT22;2391;47.212;7.542;2023-07-13T03:42:00;22.90;89.60
4755;DHT22;2391;47.212;7.542;2023-07-13T03:44:26;22.90;89.70
4755;DHT22;2391;47.212;7.542;2023-07-13T03:46:51;22.90;89.90
4755;DHT22;2391;47.212;7.542;2023-07-13T03:49:17;22.90;90.00
4755;DHT22;2391;47.212;7.542;2023-07-13T03:51:43;22.90;90.00
4755;DHT22;2391;47.212;7.542;2023-07-13T03:54:08;22.90;90.10
4755;DHT22;2391;47.212;7.542;2023-07-13T03:56:34;22.90;90.20
4755;DHT22;2391;47.212;7.542;2023-07-13T03:59:00;22.90;90.30
4755;DHT22;2391;47.212;7.542;2023-07-13T04:01:26;22.80;89.70
4755;DHT22;2391;47.212;7.542;2023-07-13T04:03:52;22.80;90.00
4755;DHT22;2391;47.212;7.542;2023-07-13T04:06:21;22.80;90.10
4755;DHT22;2391;47.212;7.542;2023-07-13T04:08:49;22.80;90.10
4755;DHT22;2391;47.212;7.542;2023-07-13T04:11:21;22.90;90.40
4755;DHT22;2391;47.212;7.542;2023-07-13T04:13:47;22.90;90.20
4755;DHT22;2391;47.212;7.542;2023-07-13T04:16:15;22.90;90.70
4755;DHT22;2391;47.212;7.542;2023-07-13T04:18:40;22.90;90.30
4755;DHT22;2391;47.212;7.542;2023-07-13T04:21:07;22.90;90.20
4755;DHT22;2391;47.212;7.542;2023-07-13T04:23:36;22.90;90.20
4755;DHT22;2391;47.212;7.542;2023-07-13T04:26:02;22.90;90.10
4755;DHT22;2391;47.212;7.542;2023-07-13T04:28:27;22.90;90.00
4755;DHT22;2391;47.212;7.542;2023-07-13T04:30:54;22.90;90.10
4755;DHT22;2391;47.212;7.542;2023-07-13T04:33:21;22.90;90.00
4755;DHT22;2391;47.212;7.542;2023-07-13T04:35:53;22.90;90.00
4755;DHT22;2391;47.212;7.542;2023-07-13T04:38:18;22.90;89.70
4755;DHT22;2391;47.212;7.542;2023-07-13T04:40:47;22.90;89.60
4755;DHT22;2391;47.212;7.542;2023-07-13T04:43:13;22.90;89.60
4755;DHT22;2391;47.212;7.542;2023-07-13T04:45:38;22.90;89.90
4755;DHT22;2391;47.212;7.542;2023-07-13T04:48:04;22.90;89.70
4755;DHT22;2391;47.212;7.542;2023-07-13T04:50:30;22.80;90.00
4755;DHT22;2391;47.212;7.542;2023-07-13T04:52:56;22.80;90.20
4755;DHT22;2391;47.212;7.542;2023-07-13T04:55:22;22.80;90.50
4755;DHT22;2391;47.212;7.542;2023-07-13T04:57:47;22.80;90.30
4755;DHT22;2391;47.212;7.542;2023-07-13T05:00:14;22.80;90.30
4755;DHT22;2391;47.212;7.542;2023-07-13T05:02:45;22.80;90.40
4755;DHT22;2391;47.212;7.542;2023-07-13T05:05:11;22.80;90.50
4755;DHT22;2391;47.212;7.542;2023-07-13T05:07:37;22.90;90.60
4755;DHT22;2391;47.212;7.542;2023-07-13T05:10:03;22.90;90.50
4755;DHT22;2391;47.212;7.542;2023-07-13T05:12:30;23.00;90.60
4755;DHT22;2391;47.212;7.542;2023-07-13T05:14:56;23.00;90.60
4755;DHT22;2391;47.212;7.542;2023-07-13T05:17:21;23.00;90.50
4755;DHT22;2391;47.212;7.542;2023-07-13T05:19:47;23.10;90.50
4755;DHT22;2391;47.212;7.542;2023-07-13T05:22:13;23.10;90.80
4755;DHT22;2391;47.212;7.542;2023-07-13T05:24:38;23.10;90.40
4755;DHT22;2391;47.212;7.542;2023-07-13T05:27:05;23.10;90.50
4755;DHT22;2391;47.212;7.542;2023-07-13T05:29:30;23.10;90.50
4755;DHT22;2391;47.212;7.542;2023-07-13T05:31:56;23.10;90.60
4755;DHT22;2391;47.212;7.542;2023-07-13T05:34:22;23.10;90.40
4755;DHT22;2391;47.212;7.542;2023-07-13T05:36:49;23.10;90.50
4755;DHT22;2391;47.212;7.542;2023-07-13T05:39:16;23.10;90.50
4755;DHT22;2391;47.212;7.542;2023-07-13T05:41:41;23.00;90.50
4755;DHT22;2391;47.212;7.542;2023-07-13T05:44:07;23.10;90.60
4755;DHT22;2391;47.212;7.542;2023-07-13T05:46:33;23.00;90.40
4755;DHT22;2391;47.212;7.542;2023-07-13T05:48:59;23.00;90.20
4755;DHT22;2391;47.212;7.542;2023-07-13T05:51:25;23.10;90.40
4755;DHT22;2391;47.212;7.542;2023-07-13T05:53:50;23.10;90.50
4755;DHT22;2391;47.212;7.542;2023-07-13T05:56:16;23.10;90.60
4755;DHT22;2391;47.212;7.542;2023-07-13T05:58:42;23.10;90.70
4755;DHT22;2391;47.212;7.542;2023-07-13T06:01:13;23.10;90.70
4755;DHT22;2391;47.212;7.542;2023-07-13T06:03:39;23.10;90.90
4755;DHT22;2391;47.212;7.542;2023-07-13T06:06:06;23.10;91.00
4755;DHT22;2391;47.212;7.542;2023-07-13T06:08:32;23.10;91.10
4755;DHT22;2391;47.212;7.542;2023-07-13T06:11:06;23.10;90.90
4755;DHT22;2391;47.212;7.542;2023-07-13T06:13:33;23.20;90.50
4755;DHT22;2391;47.212;7.542;2023-07-13T06:16:00;23.20;89.70
4755;DHT22;2391;47.212;7.542;2023-07-13T06:18:26;23.20;89.30
4755;DHT22;2391;47.212;7.542;2023-07-13T06:20:51;23.20;89.20
4755;DHT22;2391;47.212;7.542;2023-07-13T06:23:17;23.20;90.10
4755;DHT22;2391;47.212;7.542;2023-07-13T06:25:43;23.20;90.20
4755;DHT22;2391;47.212;7.542;2023-07-13T06:28:09;23.20;90.40
4755;DHT22;2391;47.212;7.542;2023-07-13T06:30:35;23.20;90.50
4755;DHT22;2391;47.212;7.542;2023-07-13T06:33:02;23.20;90.70
4755;DHT22;2391;47.212;7.542;2023-07-13T06:35:28;23.30;90.70
4755;DHT22;2391;47.212;7.542;2023-07-13T06:37:54;23.20;90.20
4755;DHT22;2391;47.212;7.542;2023-07-13T06:40:20;23.20;90.20
4755;DHT22;2391;47.212;7.542;2023-07-13T06:42:45;23.20;90.20
4755;DHT22;2391;47.212;7.542;2023-07-13T06:45:11;23.30;90.40
4755;DHT22;2391;47.212;7.542;2023-07-13T06:47:37;23.30;90.40
4755;DHT22;2391;47.212;7.542;2023-07-13T06:50:03;23.30;90.00
4755;DHT22;2391;47.212;7.542;2023-07-13T06:52:28;23.30;89.40
4755;DHT22;2391;47.212;7.542;2023-07-13T06:54:54;23.30;90.20
4755;DHT22;2391;47.212;7.542;2023-07-13T06:57:20;23.40;90.40
4755;DHT22;2391;47.212;7.542;2023-07-13T06:59:46;23.40;90.60
4755;DHT22;2391;47.212;7.542;2023-07-13T07:02:11;23.50;90.60
4755;DHT22;2391;47.212;7.542;2023-07-13T07:04:37;23.50;90.20
4755;DHT22;2391;47.212;7.542;2023-07-13T07:07:03;23.50;90.20
4755;DHT22;2391;47.212;7.542;2023-07-13T07:09:29;23.50;89.20
4755;DHT22;2391;47.212;7.542;2023-07-13T07:11:56;23.60;90.10
4755;DHT22;2391;47.212;7.542;2023-07-13T07:14:22;23.60;89.70
4755;DHT22;2391;47.212;7.542;2023-07-13T07:16:49;23.60;90.70
4755;DHT22;2391;47.212;7.542;2023-07-13T07:19:16;23.70;90.50
4755;DHT22;2391;47.212;7.542;2023-07-13T07:21:42;23.80;89.40
4755;DHT22;2391;47.212;7.542;2023-07-13T07:24:07;23.80;88.50
4755;DHT22;2391;47.212;7.542;2023-07-13T07:26:34;23.90;87.90
4755;DHT22;2391;47.212;7.542;2023-07-13T07:29:00;23.80;86.70
4755;DHT22;2391;47.212;7.542;2023-07-13T07:31:25;23.80;88.60
4755;DHT22;2391;47.212;7.542;2023-07-13T07:33:51;23.80;88.60
4755;DHT22;2391;47.212;7.542;2023-07-13T07:36:17;23.80;88.10
4755;DHT22;2391;47.212;7.542;2023-07-13T07:38:43;23.80;87.70
4755;DHT22;2391;47.212;7.542;2023-07-13T07:41:10;23.90;87.20
4755;DHT22;2391;47.212;7.542;2023-07-13T07:43:36;24.00;87.70
4755;DHT22;2391;47.212;7.542;2023-07-13T07:46:02;23.90;89.00
4755;DHT22;2391;47.212;7.542;2023-07-13T07:48:28;24.00;89.30
4755;DHT22;2391;47.212;7.542;2023-07-13T07:50:53;24.00;86.60
4755;DHT22;2391;47.212;7.542;2023-07-13T07:53:19;23.90;89.00
4755;DHT22;2391;47.212;7.542;2023-07-13T07:55:45;24.00;88.80
4755;DHT22;2391;47.212;7.542;2023-07-13T07:58:11;24.10;88.20
4755;DHT22;2391;47.212;7.542;2023-07-13T08:00:36;24.20;85.80
4755;DHT22;2391;47.212;7.542;2023-07-13T08:03:02;24.20;85.20
4755;DHT22;2391;47.212;7.542;2023-07-13T08:05:28;24.30;85.10
4755;DHT22;2391;47.212;7.542;2023-07-13T08:07:54;24.30;86.50
4755;DHT22;2391;47.212;7.542;2023-07-13T08:10:20;24.40;84.90
4755;DHT22;2391;47.212;7.542;2023-07-13T08:12:46;24.30;85.00
4755;DHT22;2391;47.212;7.542;2023-07-13T08:15:14;24.40;86.20
4755;DHT22;2391;47.212;7.542;2023-07-13T08:17:40;24.40;86.70
4755;DHT22;2391;47.212;7.542;2023-07-13T08:20:07;24.50;86.80
4755;DHT22;2391;47.212;7.542;2023-07-13T08:22:35;24.50;84.40
4755;DHT22;2391;47.212;7.542;2023-07-13T08:25:01;24.60;84.80
4755;DHT22;2391;47.212;7.542;2023-07-13T08:27:28;24.70;84.90
4755;DHT22;2391;47.212;7.542;2023-07-13T08:29:54;24.90;83.70
4755;DHT22;2391;47.212;7.542;2023-07-13T08:32:21;25.00;85.80
4755;DHT22;2391;47.212;7.542;2023-07-13T08:34:47;25.00;83.30
4755;DHT22;2391;47.212;7.542;2023-07-13T08:37:14;25.00;81.10
4755;DHT22;2391;47.212;7.542;2023-07-13T08:39:41;24.90;83.80
4755;DHT22;2391;47.212;7.542;2023-07-13T08:42:13;25.00;86.00
4755;DHT22;2391;47.212;7.542;2023-07-13T08:47:19;25.30;80.30
4755;DHT22;2391;47.212;7.542;2023-07-13T08:49:46;25.40;80.10
4755;DHT22;2391;47.212;7.542;2023-07-13T08:52:22;25.50;81.40
4755;DHT22;2391;47.212;7.542;2023-07-13T08:54:48;25.50;82.80
4755;DHT22;2391;47.212;7.542;2023-07-13T08:57:16;25.50;82.00
4755;DHT22;2391;47.212;7.542;2023-07-13T08:59:43;25.50;83.20
4755;DHT22;2391;47.212;7.542;2023-07-13T09:04:59;25.60;80.20
4755;DHT22;2391;47.212;7.542;2023-07-13T09:07:43;25.60;80.70
4755;DHT22;2391;47.212;7.542;2023-07-13T09:13:00;25.60;80.60
4755;DHT22;2391;47.212;7.542;2023-07-13T09:15:29;25.70;82.20
4755;DHT22;2391;47.212;7.542;2023-07-13T09:17:52;25.50;80.40
4755;DHT22;2391;47.212;7.542;2023-07-13T09:20:56;25.40;80.40
4755;DHT22;2391;47.212;7.542;2023-07-13T09:23:20;25.40;80.50
4755;DHT22;2391;47.212;7.542;2023-07-13T09:25:49;25.40;81.40
4755;DHT22;2391;47.212;7.542;2023-07-13T09:28:27;25.40;82.40
4755;DHT22;2391;47.212;7.542;2023-07-13T09:33:20;25.20;79.00
4755;DHT22;2391;47.212;7.542;2023-07-13T09:35:46;25.10;78.90
4755;DHT22;2391;47.212;7.542;2023-07-13T09:38:18;25.10;80.10
4755;DHT22;2391;47.212;7.542;2023-07-13T09:41:13;25.20;81.50
4755;DHT22;2391;47.212;7.542;2023-07-13T09:43:36;25.20;81.30
4755;DHT22;2391;47.212;7.542;2023-07-13T09:46:02;25.30;81.40
4755;DHT22;2391;47.212;7.542;2023-07-13T09:48:34;25.30;79.40
4755;DHT22;2391;47.212;7.542;2023-07-13T09:51:14;25.40;78.50
4755;DHT22;2391;47.212;7.542;2023-07-13T09:53:42;25.50;79.20
4755;DHT22;2391;47.212;7.542;2023-07-13T09:56:20;25.60;76.20
4755;DHT22;2391;47.212;7.542;2023-07-13T09:58:46;25.60;78.00
4755;DHT22;2391;47.212;7.542;2023-07-13T10:01:12;25.60;77.40
4755;DHT22;2391;47.212;7.542;2023-07-13T10:03:37;25.60;78.40
4755;DHT22;2391;47.212;7.542;2023-07-13T10:06:14;25.60;76.60
4755;DHT22;2391;47.212;7.542;2023-07-13T10:08:40;25.60;79.10
4755;DHT22;2391;47.212;7.542;2023-07-13T10:11:11;25.50;77.20
4755;DHT22;2391;47.212;7.542;2023-07-13T10:14:03;25.30;75.00
4755;DHT22;2391;47.212;7.542;2023-07-13T10:16:28;25.20;76.60
4755;DHT22;2391;47.212;7.542;2023-07-13T10:18:58;25.40;76.70
4755;DHT22;2391;47.212;7.542;2023-07-13T10:21:39;25.50;75.80
4755;DHT22;2391;47.212;7.542;2023-07-13T10:24:13;25.60;74.60
4755;DHT22;2391;47.212;7.542;2023-07-13T10:26:34;25.50;76.20
4755;DHT22;2391;47.212;7.542;2023-07-13T10:29:04;25.60;76.90
4755;DHT22;2391;47.212;7.542;2023-07-13T10:31:30;25.80;76.50
4755;DHT22;2391;47.212;7.542;2023-07-13T10:33:57;25.90;77.60
4755;DHT22;2391;47.212;7.542;2023-07-13T10:36:38;26.10;77.30
4755;DHT22;2391;47.212;7.542;2023-07-13T10:39:04;26.30;77.40
4755;DHT22;2391;47.212;7.542;2023-07-13T10:41:37;26.40;77.10
4755;DHT22;2391;47.212;7.542;2023-07-13T10:44:04;26.40;77.40
4755;DHT22;2391;47.212;7.542;2023-07-13T10:46:30;26.40;74.50
4755;DHT22;2391;47.212;7.542;2023-07-13T10:48:58;26.40;75.40
4755;DHT22;2391;47.212;7.542;2023-07-13T10:51:27;26.30;77.90
4755;DHT22;2391;47.212;7.542;2023-07-13T10:54:26;26.20;76.90
4755;DHT22;2391;47.212;7.542;2023-07-13T10:56:51;26.30;76.80
4755;DHT22;2391;47.212;7.542;2023-07-13T10:59:26;26.30;74.80
4755;DHT22;2391;47.212;7.542;2023-07-13T11:04:23;26.10;74.90
4755;DHT22;2391;47.212;7.542;2023-07-13T11:06:56;26.00;77.90
4755;DHT22;2391;47.212;7.542;2023-07-13T11:09:35;26.00;78.90
4755;DHT22;2391;47.212;7.542;2023-07-13T11:22:49;26.00;77.60
4755;DHT22;2391;47.212;7.542;2023-07-13T11:28:03;26.10;74.90
4755;DHT22;2391;47.212;7.542;2023-07-13T11:30:34;26.20;75.30
4755;DHT22;2391;47.212;7.542;2023-07-13T11:38:36;26.30;75.80
4755;DHT22;2391;47.212;7.542;2023-07-13T11:41:13;26.20;75.10
4755;DHT22;2391;47.212;7.542;2023-07-13T11:43:34;26.30;75.90
4755;DHT22;2391;47.212;7.542;2023-07-13T11:48:49;26.30;78.00
4755;DHT22;2391;47.212;7.542;2023-07-13T11:51:28;26.20;77.60
4755;DHT22;2391;47.212;7.542;2023-07-13T11:53:56;26.30;78.30
4755;DHT22;2391;47.212;7.542;2023-07-13T11:56:23;26.30;77.60
4755;DHT22;2391;47.212;7.542;2023-07-13T11:58:53;26.40;76.40
4755;DHT22;2391;47.212;7.542;2023-07-13T12:01:23;26.40;78.20
4755;DHT22;2391;47.212;7.542;2023-07-13T12:03:49;26.40;77.10
4755;DHT22;2391;47.212;7.542;2023-07-13T12:06:28;26.40;76.60
4755;DHT22;2391;47.212;7.542;2023-07-13T12:09:03;26.50;76.90
4755;DHT22;2391;47.212;7.542;2023-07-13T12:11:30;26.50;76.50
4755;DHT22;2391;47.212;7.542;2023-07-13T12:13:56;26.60;76.60
4755;DHT22;2391;47.212;7.542;2023-07-13T12:16:28;26.70;74.00
4755;DHT22;2391;47.212;7.542;2023-07-13T12:18:56;26.70;72.70
4755;DHT22;2391;47.212;7.542;2023-07-13T12:21:29;26.60;70.90
4755;DHT22;2391;47.212;7.542;2023-07-13T12:23:51;26.50;70.80
4755;DHT22;2391;47.212;7.542;2023-07-13T12:26:18;26.50;70.60
4755;DHT22;2391;47.212;7.542;2023-07-13T12:31:29;26.30;75.00
4755;DHT22;2391;47.212;7.542;2023-07-13T12:34:06;26.40;75.50
4755;DHT22;2391;47.212;7.542;2023-07-13T12:36:33;26.60;76.20
4755;DHT22;2391;47.212;7.542;2023-07-13T12:39:11;26.80;74.60
4755;DHT22;2391;47.212;7.542;2023-07-13T12:41:30;26.90;73.30
4755;DHT22;2391;47.212;7.542;2023-07-13T12:43:56;26.90;74.20
4755;DHT22;2391;47.212;7.542;2023-07-13T12:46:24;26.90;74.40
4755;DHT22;2391;47.212;7.542;2023-07-13T12:48:54;26.90;73.80
4755;DHT22;2391;47.212;7.542;2023-07-13T12:51:27;27.00;69.30
4755;DHT22;2391;47.212;7.542;2023-07-13T12:54:05;27.10;69.50
4755;DHT22;2391;47.212;7.542;2023-07-13T12:56:27;27.30;66.70
4755;DHT22;2391;47.212;7.542;2023-07-13T12:59:01;27.30;68.10
4755;DHT22;2391;47.212;7.542;2023-07-13T13:01:29;27.40;67.10
4755;DHT22;2391;47.212;7.542;2023-07-13T13:03:55;27.50;69.00
4755;DHT22;2391;47.212;7.542;2023-07-13T13:06:25;27.70;68.90
4755;DHT22;2391;47.212;7.542;2023-07-13T13:08:57;27.80;69.00
4755;DHT22;2391;47.212;7.542;2023-07-13T13:11:22;27.90;69.10
4755;DHT22;2391;47.212;7.542;2023-07-13T13:13:48;27.90;67.40
4755;DHT22;2391;47.212;7.542;2023-07-13T13:16:20;28.00;68.90
4755;DHT22;2391;47.212;7.542;2023-07-13T13:18:48;28.00;67.40
4755;DHT22;2391;47.212;7.542;2023-07-13T13:21:16;28.10;66.10
4755;DHT22;2391;47.212;7.542;2023-07-13T13:23:42;28.10;66.30
4755;DHT22;2391;47.212;7.542;2023-07-13T13:26:14;28.20;64.60
4755;DHT22;2391;47.212;7.542;2023-07-13T13:28:44;28.30;63.90
4755;DHT22;2391;47.212;7.542;2023-07-13T13:31:11;28.20;65.30
4755;DHT22;2391;47.212;7.542;2023-07-13T13:33:42;28.20;65.50
4755;DHT22;2391;47.212;7.542;2023-07-13T13:38:43;28.10;63.20
4755;DHT22;2391;47.212;7.542;2023-07-13T13:41:11;28.10;65.10
4755;DHT22;2391;47.212;7.542;2023-07-13T13:43:39;28.20;65.00
4755;DHT22;2391;47.212;7.542;2023-07-13T13:46:17;28.10;66.00
4755;DHT22;2391;47.212;7.542;2023-07-13T13:48:43;28.20;64.30
4755;DHT22;2391;47.212;7.542;2023-07-13T13:51:21;28.20;63.50
4755;DHT22;2391;47.212;7.542;2023-07-13T13:53:44;28.20;62.20
4755;DHT22;2391;47.212;7.542;2023-07-13T13:56:12;28.20;63.10
4755;DHT22;2391;47.212;7.542;2023-07-13T13:58:38;28.20;63.90
4755;DHT22;2391;47.212;7.542;2023-07-13T14:01:04;28.30;61.60
4755;DHT22;2391;47.212;7.542;2023-07-13T14:03:32;28.20;63.90
4755;DHT22;2391;47.212;7.542;2023-07-13T14:05:57;28.20;63.70
4755;DHT22;2391;47.212;7.542;2023-07-13T14:08:23;28.30;63.80
4755;DHT22;2391;47.212;7.542;2023-07-13T14:10:51;28.40;63.20
4755;DHT22;2391;47.212;7.542;2023-07-13T14:13:26;28.40;60.70
4755;DHT22;2391;47.212;7.542;2023-07-13T14:15:54;28.30;60.50
4755;DHT22;2391;47.212;7.542;2023-07-13T14:18:20;28.40;61.60
4755;DHT22;2391;47.212;7.542;2023-07-13T14:20:47;28.40;60.60
4755;DHT22;2391;47.212;7.542;2023-07-13T14:23:16;28.50;60.10
4755;DHT22;2391;47.212;7.542;2023-07-13T14:25:47;28.50;60.00
4755;DHT22;2391;47.212;7.542;2023-07-13T14:28:24;28.60;58.10
4755;DHT22;2391;47.212;7.542;2023-07-13T14:30:52;28.60;58.60
4755;DHT22;2391;47.212;7.542;2023-07-13T14:33:18;28.60;59.30
4755;DHT22;2391;47.212;7.542;2023-07-13T14:35:44;28.70;57.90
4755;DHT22;2391;47.212;7.542;2023-07-13T14:38:12;28.70;59.10
4755;DHT22;2391;47.212;7.542;2023-07-13T14:40:39;28.80;57.60
4755;DHT22;2391;47.212;7.542;2023-07-13T14:43:10;28.80;58.10
4755;DHT22;2391;47.212;7.542;2023-07-13T14:45:39;28.80;58.10
4755;DHT22;2391;47.212;7.542;2023-07-13T14:48:21;28.80;57.50
4755;DHT22;2391;47.212;7.542;2023-07-13T14:50:56;28.90;59.10
4755;DHT22;2391;47.212;7.542;2023-07-13T14:53:24;28.90;57.90
4755;DHT22;2391;47.212;7.542;2023-07-13T14:55:50;28.90;57.50
4755;DHT22;2391;47.212;7.542;2023-07-13T14:58:16;28.90;55.90
4755;DHT22;2391;47.212;7.542;2023-07-13T15:00:42;28.80;57.30
4755;DHT22;2391;47.212;7.542;2023-07-13T15:03:21;28.90;58.60
4755;DHT22;2391;47.212;7.542;2023-07-13T15:05:45;28.90;57.50
4755;DHT22;2391;47.212;7.542;2023-07-13T15:08:11;28.80;55.70
4755;DHT22;2391;47.212;7.542;2023-07-13T15:10:37;28.70;57.30
4755;DHT22;2391;47.212;7.542;2023-07-13T15:13:21;28.70;56.70
4755;DHT22;2391;47.212;7.542;2023-07-13T15:15:51;28.70;56.40
4755;DHT22;2391;47.212;7.542;2023-07-13T15:18:21;28.70;56.90
4755;DHT22;2391;47.212;7.542;2023-07-13T15:20:49;28.70;56.00
4755;DHT22;2391;47.212;7.542;2023-07-13T15:23:17;28.70;55.00
4755;DHT22;2391;47.212;7.542;2023-07-13T15:25:43;28.70;56.70
4755;DHT22;2391;47.212;7.542;2023-07-13T15:28:10;28.60;56.60
4755;DHT22;2391;47.212;7.542;2023-07-13T15:30:40;28.50;56.40
4755;DHT22;2391;47.212;7.542;2023-07-13T15:33:21;28.60;56.60
4755;DHT22;2391;47.212;7.542;2023-07-13T15:35:45;28.50;55.30
4755;DHT22;2391;47.212;7.542;2023-07-13T15:38:23;28.50;55.80
4755;DHT22;2391;47.212;7.542;2023-07-13T15:40:52;28.50;55.30
4755;DHT22;2391;47.212;7.542;2023-07-13T15:43:19;28.50;55.20
4755;DHT22;2391;47.212;7.542;2023-07-13T15:45:47;28.50;55.20
4755;DHT22;2391;47.212;7.542;2023-07-13T15:48:22;28.50;56.00
4755;DHT22;2391;47.212;7.542;2023-07-13T15:50:50;28.50;56.30
4755;DHT22;2391;47.212;7.542;2023-07-13T15:53:31;28.50;56.50
4755;DHT22;2391;47.212;7.542;2023-07-13T15:55:58;28.50;54.60
4755;DHT22;2391;47.212;7.542;2023-07-13T15:58:25;28.50;55.10
4755;DHT22;2391;47.212;7.542;2023-07-13T16:00:52;28.50;54.30
4755;DHT22;2391;47.212;7.542;2023-07-13T16:03:21;28.50;53.80
4755;DHT22;2391;47.212;7.542;2023-07-13T16:05:48;28.50;55.10
4755;DHT22;2391;47.212;7.542;2023-07-13T16:10:47;28.60;55.60
4755;DHT22;2391;47.212;7.542;2023-07-13T16:13:18;28.60;53.00
4755;DHT22;2391;47.212;7.542;2023-07-13T16:15:47;28.60;53.90
4755;DHT22;2391;47.212;7.542;2023-07-13T16:18:14;28.60;54.20
4755;DHT22;2391;47.212;7.542;2023-07-13T16:20:44;28.60;54.40
4755;DHT22;2391;47.212;7.542;2023-07-13T16:23:12;28.60;54.40
4755;DHT22;2391;47.212;7.542;2023-07-13T16:25:39;28.60;54.10
4755;DHT22;2391;47.212;7.542;2023-07-13T16:28:08;28.60;54.30
4755;DHT22;2391;47.212;7.542;2023-07-13T16:30:34;28.60;53.50
4755;DHT22;2391;47.212;7.542;2023-07-13T16:33:02;28.60;53.60
4755;DHT22;2391;47.212;7.542;2023-07-13T16:35:34;28.60;53.50
4755;DHT22;2391;47.212;7.542;2023-07-13T16:38:01;28.50;52.80
4755;DHT22;2391;47.212;7.542;2023-07-13T16:40:30;28.40;53.20
4755;DHT22;2391;47.212;7.542;2023-07-13T16:42:58;28.30;53.00
4755;DHT22;2391;47.212;7.542;2023-07-13T16:45:27;28.30;53.50
4755;DHT22;2391;47.212;7.542;2023-07-13T16:47:55;28.30;53.30
4755;DHT22;2391;47.212;7.542;2023-07-13T16:50:23;28.20;53.20
4755;DHT22;2391;47.212;7.542;2023-07-13T16:52:50;28.30;53.80